sensor_id;sensor_type;location;lat;lon;timestamp;temperature;humidity
19522;DHT22;9905;52.126;5.596;2022-12-18T00:02:01;-2.50;99.90
19522;DHT22;9905;52.126;5.596;2022-12-18T00:04:29;-2.50;99.90
19522;DHT22;9905;52.126;5.596;2022-12-18T00:06:57;-2.50;99.90
19522;DHT22;9905;52.126;5.596;2022-12-18T00:09:23;-2.50;99.90
19522;DHT22;9905;52.126;5.596;2022-12-18T00:11:50;-2.50;99.90
19522;DHT22;9905;52.126;5.596;2022-12-18T00:14:17;-2.50;99.90
19522;DHT22;9905;52.126;5.596;2022-12-18T00:16:44;-2.50;99.90
19522;DHT22;9905;52.126;5.596;2022-12-18T00:19:12;-2.50;99.90
19522;DHT22;9905;52.126;5.596;2022-12-18T00:21:38;-2.60;99.90
19522;DHT22;9905;52.126;5.596;2022-12-18T00:24:07;-2.60;99.90
19522;DHT22;9905;52.126;5.596;2022-12-18T00:26:35;-2.70;99.90
19522;DHT22;9905;52.126;5.596;2022-12-18T00:29:04;-2.60;99.90
19522;DHT22;9905;52.126;5.596;2022-12-18T00:31:32;-2.60;99.90
19522;DHT22;9905;52.126;5.596;2022-12-18T00:33:58;-2.70;99.90
19522;DHT22;9905;52.126;5.596;2022-12-18T00:36:26;-2.70;99.90
19522;DHT22;9905;52.126;5.596;2022-12-18T00:38:55;-2.70;99.90
19522;DHT22;9905;52.126;5.596;2022-12-18T00:41:23;-2.80;99.90
19522;DHT22;9905;52.126;5.596;2022-12-18T00:44:10;-2.80;99.90
19522;DHT22;9905;52.126;5.596;2022-12-18T00:46:38;-2.80;99.90
19522;DHT22;9905;52.126;5.596;2022-12-18T00:49:05;-2.80;99.90
19522;DHT22;9905;52.126;5.596;2022-12-18T00:51:32;-2.80;99.90
19522;DHT22;9905;52.126;5.596;2022-12-18T00:53:59;-2.80;99.90
19522;DHT22;9905;52.126;5.596;2022-12-18T00:56:27;-2.70;99.90
19522;DHT22;9905;52.126;5.596;2022-12-18T00:58:54;-2.70;99.90
19522;DHT22;9905;52.126;5.596;2022-12-18T01:01:21;-2.70;99.90
19522;DHT22;9905;52.126;5.596;2022-12-18T01:03:47;-2.80;99.90
19522;DHT22;9905;52.126;5.596;2022-12-18T01:06:15;-2.90;99.90
19522;DHT22;9905;52.126;5.596;2022-12-18T01:08:43;-2.90;99.90
19522;DHT22;9905;52.126;5.596;2022-12-18T01:11:11;-3.00;99.90
19522;DHT22;9905;52.126;5.596;2022-12-18T01:13:39;-3.00;99.90
19522;DHT22;9905;52.126;5.596;2022-12-18T01:16:07;-3.00;99.90
19522;DHT22;9905;52.126;5.596;2022-12-18T01:18:34;-3.00;99.90
19522;DHT22;9905;52.126;5.596;2022-12-18T01:21:05;-3.00;99.90
19522;DHT22;9905;52.126;5.596;2022-12-18T01:23:32;-3.10;99.90
19522;DHT22;9905;52.126;5.596;2022-12-18T01:26:04;-3.10;99.90
19522;DHT22;9905;52.126;5.596;2022-12-18T01:28:31;-3.00;99.90
19522;DHT22;9905;52.126;5.596;2022-12-18T01:31:09;-3.10;99.90
19522;DHT22;9905;52.126;5.596;2022-12-18T01:33:36;-3.10;99.90
19522;DHT22;9905;52.126;5.596;2022-12-18T01:36:03;-3.10;99.90
19522;DHT22;9905;52.126;5.596;2022-12-18T01:38:30;-3.10;99.90
19522;DHT22;9905;52.126;5.596;2022-12-18T01:40:57;-3.10;99.90
19522;DHT22;9905;52.126;5.596;2022-12-18T01:43:46;-3.10;99.90
19522;DHT22;9905;52.126;5.596;2022-12-18T01:46:15;-3.10;99.90
19522;DHT22;9905;52.126;5.596;2022-12-18T01:48:42;-3.20;99.90
19522;DHT22;9905;52.126;5.596;2022-12-18T01:51:11;-3.30;99.90
19522;DHT22;9905;52.126;5.596;2022-12-18T01:53:40;-3.30;99.90
19522;DHT22;9905;52.126;5.596;2022-12-18T01:56:08;-3.30;99.90
19522;DHT22;9905;52.126;5.596;2022-12-18T01:58:43;-3.30;99.90
19522;DHT22;9905;52.126;5.596;2022-12-18T02:01:12;-3.30;99.90
19522;DHT22;9905;52.126;5.596;2022-12-18T02:03:43;-3.30;99.90
19522;DHT22;9905;52.126;5.596;2022-12-18T02:06:14;-3.30;99.90
19522;DHT22;9905;52.126;5.596;2022-12-18T02:08:51;-3.30;99.90
19522;DHT22;9905;52.126;5.596;2022-12-18T02:11:27;-3.30;99.90
19522;DHT22;9905;52.126;5.596;2022-12-18T02:14:04;-3.40;99.90
19522;DHT22;9905;52.126;5.596;2022-12-18T02:16:39;-3.50;99.90
19522;DHT22;9905;52.126;5.596;2022-12-18T02:19:22;-3.50;99.90
19522;DHT22;9905;52.126;5.596;2022-12-18T02:21:57;-3.50;99.90
19522;DHT22;9905;52.126;5.596;2022-12-18T02:24:33;-3.60;99.90
19522;DHT22;9905;52.126;5.596;2022-12-18T02:27:04;-3.60;99.90
19522;DHT22;9905;52.126;5.596;2022-12-18T02:29:36;-3.70;99.90
19522;DHT22;9905;52.126;5.596;2022-12-18T02:32:08;-3.70;99.90
19522;DHT22;9905;52.126;5.596;2022-12-18T02:34:38;-3.80;99.90
19522;DHT22;9905;52.126;5.596;2022-12-18T02:37:08;-3.70;99.90
19522;DHT22;9905;52.126;5.596;2022-12-18T02:39:38;-3.70;99.90
19522;DHT22;9905;52.126;5.596;2022-12-18T02:42:07;-3.70;99.90
19522;DHT22;9905;52.126;5.596;2022-12-18T02:44:34;-3.70;99.90
19522;DHT22;9905;52.126;5.596;2022-12-18T02:47:01;-3.80;99.90
19522;DHT22;9905;52.126;5.596;2022-12-18T02:49:34;-3.80;99.90
19522;DHT22;9905;52.126;5.596;2022-12-18T02:52:09;-3.80;99.90
19522;DHT22;9905;52.126;5.596;2022-12-18T02:54:45;-3.80;99.90
19522;DHT22;9905;52.126;5.596;2022-12-18T02:57:20;-3.90;99.90
19522;DHT22;9905;52.126;5.596;2022-12-18T02:59:54;-3.90;99.90
19522;DHT22;9905;52.126;5.596;2022-12-18T03:02:26;-3.90;99.90
19522;DHT22;9905;52.126;5.596;2022-12-18T03:05:01;-4.00;99.90
19522;DHT22;9905;52.126;5.596;2022-12-18T03:07:35;-4.00;99.90
19522;DHT22;9905;52.126;5.596;2022-12-18T03:10:06;-4.10;99.90
19522;DHT22;9905;52.126;5.596;2022-12-18T03:12:38;-4.10;99.90
19522;DHT22;9905;52.126;5.596;2022-12-18T03:15:09;-4.10;99.90
19522;DHT22;9905;52.126;5.596;2022-12-18T03:17:41;-4.10;99.90
19522;DHT22;9905;52.126;5.596;2022-12-18T03:20:12;-4.10;99.90
19522;DHT22;9905;52.126;5.596;2022-12-18T03:22:43;-4.10;99.90
19522;DHT22;9905;52.126;5.596;2022-12-18T03:25:13;-4.20;99.90
19522;DHT22;9905;52.126;5.596;2022-12-18T03:27:44;-4.20;99.90
19522;DHT22;9905;52.126;5.596;2022-12-18T03:30:14;-4.10;99.90
19522;DHT22;9905;52.126;5.596;2022-12-18T03:32:47;-4.10;99.90
19522;DHT22;9905;52.126;5.596;2022-12-18T03:35:17;-4.20;99.90
19522;DHT22;9905;52.126;5.596;2022-12-18T03:37:45;-4.20;99.90
19522;DHT22;9905;52.126;5.596;2022-12-18T03:40:12;-4.20;99.90
19522;DHT22;9905;52.126;5.596;2022-12-18T03:42:46;-4.20;99.90
19522;DHT22;9905;52.126;5.596;2022-12-18T03:45:19;-4.10;99.90
19522;DHT22;9905;52.126;5.596;2022-12-18T03:47:56;-4.20;99.90
19522;DHT22;9905;52.126;5.596;2022-12-18T03:50:29;-4.20;99.90
19522;DHT22;9905;52.126;5.596;2022-12-18T03:53:03;-4.20;99.90
19522;DHT22;9905;52.126;5.596;2022-12-18T03:55:33;-4.30;99.90
19522;DHT22;9905;52.126;5.596;2022-12-18T03:58:03;-4.30;99.90
19522;DHT22;9905;52.126;5.596;2022-12-18T04:00:33;-4.30;99.90
19522;DHT22;9905;52.126;5.596;2022-12-18T04:03:01;-4.40;99.90
19522;DHT22;9905;52.126;5.596;2022-12-18T04:05:28;-4.40;99.90
19522;DHT22;9905;52.126;5.596;2022-12-18T04:07:56;-4.40;99.90
19522;DHT22;9905;52.126;5.596;2022-12-18T04:10:23;-4.40;99.90
19522;DHT22;9905;52.126;5.596;2022-12-18T04:12:50;-4.40;99.90
19522;DHT22;9905;52.126;5.596;2022-12-18T04:15:18;-4.30;99.90
19522;DHT22;9905;52.126;5.596;2022-12-18T04:17:48;-4.40;99.90
19522;DHT22;9905;52.126;5.596;2022-12-18T04:20:15;-4.30;99.90
19522;DHT22;9905;52.126;5.596;2022-12-18T04:22:42;-4.40;99.90
19522;DHT22;9905;52.126;5.596;2022-12-18T04:25:09;-4.40;99.90
19522;DHT22;9905;52.126;5.596;2022-12-18T04:27:36;-4.40;99.90
19522;DHT22;9905;52.126;5.596;2022-12-18T04:30:03;-4.50;99.90
19522;DHT22;9905;52.126;5.596;2022-12-18T04:32:33;-4.50;99.90
19522;DHT22;9905;52.126;5.596;2022-12-18T04:34:59;-4.50;99.90
19522;DHT22;9905;52.126;5.596;2022-12-18T04:37:26;-4.50;99.90
19522;DHT22;9905;52.126;5.596;2022-12-18T04:39:53;-4.50;99.90
19522;DHT22;9905;52.126;5.596;2022-12-18T04:42:20;-4.50;99.90
19522;DHT22;9905;52.126;5.596;2022-12-18T04:44:46;-4.50;99.90
19522;DHT22;9905;52.126;5.596;2022-12-18T04:47:13;-4.60;99.90
19522;DHT22;9905;52.126;5.596;2022-12-18T04:49:41;-4.60;99.90
19522;DHT22;9905;52.126;5.596;2022-12-18T04:52:08;-4.60;99.90
19522;DHT22;9905;52.126;5.596;2022-12-18T04:54:34;-4.70;99.90
19522;DHT22;9905;52.126;5.596;2022-12-18T04:57:01;-4.70;99.90
19522;DHT22;9905;52.126;5.596;2022-12-18T04:59:28;-4.70;99.90
19522;DHT22;9905;52.126;5.596;2022-12-18T05:01:55;-4.70;99.90
19522;DHT22;9905;52.126;5.596;2022-12-18T05:04:22;-4.70;99.90
19522;DHT22;9905;52.126;5.596;2022-12-18T05:06:50;-4.60;99.90
19522;DHT22;9905;52.126;5.596;2022-12-18T05:09:16;-4.60;99.90
19522;DHT22;9905;52.126;5.596;2022-12-18T05:11:43;-4.60;99.90
19522;DHT22;9905;52.126;5.596;2022-12-18T05:14:10;-4.60;99.90
19522;DHT22;9905;52.126;5.596;2022-12-18T05:16:36;-4.60;99.90
19522;DHT22;9905;52.126;5.596;2022-12-18T05:19:03;-4.60;99.90
19522;DHT22;9905;52.126;5.596;2022-12-18T05:21:30;-4.60;99.90
19522;DHT22;9905;52.126;5.596;2022-12-18T05:23:58;-4.60;99.90
19522;DHT22;9905;52.126;5.596;2022-12-18T05:26:25;-4.60;99.90
19522;DHT22;9905;52.126;5.596;2022-12-18T05:28:52;-4.60;99.90
19522;DHT22;9905;52.126;5.596;2022-12-18T05:31:18;-4.70;99.90
19522;DHT22;9905;52.126;5.596;2022-12-18T05:33:45;-4.60;99.90
19522;DHT22;9905;52.126;5.596;2022-12-18T05:36:12;-4.70;99.90
19522;DHT22;9905;52.126;5.596;2022-12-18T05:38:39;-4.70;99.90
19522;DHT22;9905;52.126;5.596;2022-12-18T05:41:08;-4.70;99.90
19522;DHT22;9905;52.126;5.596;2022-12-18T05:43:36;-4.70;99.90
19522;DHT22;9905;52.126;5.596;2022-12-18T05:46:04;-4.70;99.90
19522;DHT22;9905;52.126;5.596;2022-12-18T05:48:31;-4.70;99.90
19522;DHT22;9905;52.126;5.596;2022-12-18T05:51:04;-4.70;99.90
19522;DHT22;9905;52.126;5.596;2022-12-18T05:53:31;-4.80;99.90
19522;DHT22;9905;52.126;5.596;2022-12-18T05:56:00;-4.70;99.90
19522;DHT22;9905;52.126;5.596;2022-12-18T05:58:29;-4.70;99.90
19522;DHT22;9905;52.126;5.596;2022-12-18T06:00:56;-4.80;99.90
19522;DHT22;9905;52.126;5.596;2022-12-18T06:03:23;-4.80;99.90
19522;DHT22;9905;52.126;5.596;2022-12-18T06:05:50;-4.80;99.90
19522;DHT22;9905;52.126;5.596;2022-12-18T06:08:17;-4.80;99.90
19522;DHT22;9905;52.126;5.596;2022-12-18T06:10:50;-4.70;99.90
19522;DHT22;9905;52.126;5.596;2022-12-18T06:13:18;-4.70;99.90
19522;DHT22;9905;52.126;5.596;2022-12-18T06:15:47;-4.70;99.90
19522;DHT22;9905;52.126;5.596;2022-12-18T06:18:13;-4.70;99.90
19522;DHT22;9905;52.126;5.596;2022-12-18T06:20:40;-4.70;99.90
19522;DHT22;9905;52.126;5.596;2022-12-18T06:23:07;-4.70;99.90
19522;DHT22;9905;52.126;5.596;2022-12-18T06:25:38;-4.70;99.90
19522;DHT22;9905;52.126;5.596;2022-12-18T06:28:05;-4.70;99.90
19522;DHT22;9905;52.126;5.596;2022-12-18T06:30:32;-4.70;99.90
19522;DHT22;9905;52.126;5.596;2022-12-18T06:33:00;-4.70;99.90
19522;DHT22;9905;52.126;5.596;2022-12-18T06:35:26;-4.70;99.90
19522;DHT22;9905;52.126;5.596;2022-12-18T06:37:53;-4.70;99.90
19522;DHT22;9905;52.126;5.596;2022-12-18T06:40:20;-4.70;99.90
19522;DHT22;9905;52.126;5.596;2022-12-18T06:42:47;-4.70;99.90
19522;DHT22;9905;52.126;5.596;2022-12-18T06:45:15;-4.70;99.90
19522;DHT22;9905;52.126;5.596;2022-12-18T06:47:42;-4.70;99.90
19522;DHT22;9905;52.126;5.596;2022-12-18T06:50:10;-4.70;99.90
19522;DHT22;9905;52.126;5.596;2022-12-18T06:52:37;-4.80;99.90
19522;DHT22;9905;52.126;5.596;2022-12-18T06:55:05;-4.80;99.90
19522;DHT22;9905;52.126;5.596;2022-12-18T06:57:32;-4.90;99.90
19522;DHT22;9905;52.126;5.596;2022-12-18T06:59:59;-4.90;99.90
19522;DHT22;9905;52.126;5.596;2022-12-18T07:02:26;-5.00;99.90
19522;DHT22;9905;52.126;5.596;2022-12-18T07:04:53;-5.00;99.90
19522;DHT22;9905;52.126;5.596;2022-12-18T07:07:21;-5.00;99.90
19522;DHT22;9905;52.126;5.596;2022-12-18T07:09:49;-5.00;99.90
19522;DHT22;9905;52.126;5.596;2022-12-18T07:12:16;-4.90;99.90
19522;DHT22;9905;52.126;5.596;2022-12-18T07:14:43;-5.00;99.90
19522;DHT22;9905;52.126;5.596;2022-12-18T07:17:09;-4.90;99.90
19522;DHT22;9905;52.126;5.596;2022-12-18T07:19:36;-4.90;99.90
19522;DHT22;9905;52.126;5.596;2022-12-18T07:22:03;-4.80;99.90
19522;DHT22;9905;52.126;5.596;2022-12-18T07:24:32;-4.70;99.90
19522;DHT22;9905;52.126;5.596;2022-12-18T07:26:59;-4.70;99.90
19522;DHT22;9905;52.126;5.596;2022-12-18T07:29:25;-4.60;99.90
19522;DHT22;9905;52.126;5.596;2022-12-18T07:31:52;-4.60;99.90
19522;DHT22;9905;52.126;5.596;2022-12-18T07:34:19;-4.60;99.90
19522;DHT22;9905;52.126;5.596;2022-12-18T07:36:46;-4.50;99.90
19522;DHT22;9905;52.126;5.596;2022-12-18T07:39:13;-4.50;99.90
19522;DHT22;9905;52.126;5.596;2022-12-18T07:41:41;-4.40;99.90
19522;DHT22;9905;52.126;5.596;2022-12-18T07:44:11;-4.40;99.90
19522;DHT22;9905;52.126;5.596;2022-12-18T07:46:38;-4.40;99.90
19522;DHT22;9905;52.126;5.596;2022-12-18T07:49:05;-4.40;99.90
19522;DHT22;9905;52.126;5.596;2022-12-18T07:51:32;-4.40;99.90
19522;DHT22;9905;52.126;5.596;2022-12-18T07:53:58;-4.30;99.90
19522;DHT22;9905;52.126;5.596;2022-12-18T07:56:25;-4.30;99.90
19522;DHT22;9905;52.126;5.596;2022-12-18T07:58:53;-4.20;99.90
19522;DHT22;9905;52.126;5.596;2022-12-18T08:01:20;-4.20;99.90
19522;DHT22;9905;52.126;5.596;2022-12-18T08:03:47;-4.20;99.90
19522;DHT22;9905;52.126;5.596;2022-12-18T08:06:14;-4.20;99.90
19522;DHT22;9905;52.126;5.596;2022-12-18T08:08:40;-4.20;99.90
19522;DHT22;9905;52.126;5.596;2022-12-18T08:11:07;-4.10;99.90
19522;DHT22;9905;52.126;5.596;2022-12-18T08:13:34;-4.10;99.90
19522;DHT22;9905;52.126;5.596;2022-12-18T08:16:04;-4.10;99.90
19522;DHT22;9905;52.126;5.596;2022-12-18T08:18:32;-4.00;99.90
19522;DHT22;9905;52.126;5.596;2022-12-18T08:21:07;-3.90;99.90
19522;DHT22;9905;52.126;5.596;2022-12-18T08:23:34;-3.90;99.90
19522;DHT22;9905;52.126;5.596;2022-12-18T08:26:01;-3.80;99.90
19522;DHT22;9905;52.126;5.596;2022-12-18T08:28:28;-3.80;99.90
19522;DHT22;9905;52.126;5.596;2022-12-18T08:30:54;-3.60;99.90
19522;DHT22;9905;52.126;5.596;2022-12-18T08:33:22;-3.50;99.90
19522;DHT22;9905;52.126;5.596;2022-12-18T08:35:49;-3.40;99.90
19522;DHT22;9905;52.126;5.596;2022-12-18T08:38:16;-3.30;99.90
19522;DHT22;9905;52.126;5.596;2022-12-18T08:40:43;-3.20;99.90
19522;DHT22;9905;52.126;5.596;2022-12-18T08:43:10;-3.10;99.90
19522;DHT22;9905;52.126;5.596;2022-12-18T08:45:55;-3.10;99.90
19522;DHT22;9905;52.126;5.596;2022-12-18T08:48:23;-3.10;99.90
19522;DHT22;9905;52.126;5.596;2022-12-18T08:50:57;-3.10;99.90
19522;DHT22;9905;52.126;5.596;2022-12-18T08:53:24;-3.10;99.90
19522;DHT22;9905;52.126;5.596;2022-12-18T08:55:51;-3.00;99.90
19522;DHT22;9905;52.126;5.596;2022-12-18T08:58:18;-3.00;99.90
19522;DHT22;9905;52.126;5.596;2022-12-18T09:00:45;-2.90;99.90
19522;DHT22;9905;52.126;5.596;2022-12-18T09:03:13;-2.90;99.90
19522;DHT22;9905;52.126;5.596;2022-12-18T09:05:41;-2.80;99.90
19522;DHT22;9905;52.126;5.596;2022-12-18T09:08:08;-2.70;99.90
19522;DHT22;9905;52.126;5.596;2022-12-18T09:10:41;-2.70;99.90
19522;DHT22;9905;52.126;5.596;2022-12-18T09:13:08;-2.70;99.90
19522;DHT22;9905;52.126;5.596;2022-12-18T09:15:40;-2.60;99.90
19522;DHT22;9905;52.126;5.596;2022-12-18T09:18:07;-2.50;99.90
19522;DHT22;9905;52.126;5.596;2022-12-18T09:20:34;-2.50;99.90
19522;DHT22;9905;52.126;5.596;2022-12-18T09:23:02;-2.50;99.90
19522;DHT22;9905;52.126;5.596;2022-12-18T09:25:30;-2.40;99.90
19522;DHT22;9905;52.126;5.596;2022-12-18T09:27:58;-2.30;99.90
19522;DHT22;9905;52.126;5.596;2022-12-18T09:30:25;-2.30;99.90
19522;DHT22;9905;52.126;5.596;2022-12-18T09:32:52;-2.30;99.90
19522;DHT22;9905;52.126;5.596;2022-12-18T09:35:18;-2.20;99.90
19522;DHT22;9905;52.126;5.596;2022-12-18T09:37:45;-2.10;99.90
19522;DHT22;9905;52.126;5.596;2022-12-18T09:40:15;-2.00;99.90
19522;DHT22;9905;52.126;5.596;2022-12-18T09:42:46;-2.00;99.90
19522;DHT22;9905;52.126;5.596;2022-12-18T09:45:15;-2.00;99.90
19522;DHT22;9905;52.126;5.596;2022-12-18T09:47:43;-1.90;99.90
19522;DHT22;9905;52.126;5.596;2022-12-18T09:50:20;-1.90;99.90
19522;DHT22;9905;52.126;5.596;2022-12-18T09:52:51;-1.80;99.90
19522;DHT22;9905;52.126;5.596;2022-12-18T09:55:25;-1.80;99.90
19522;DHT22;9905;52.126;5.596;2022-12-18T09:57:57;-1.80;99.90
19522;DHT22;9905;52.126;5.596;2022-12-18T10:00:27;-1.80;99.90
19522;DHT22;9905;52.126;5.596;2022-12-18T10:03:02;-1.70;99.90
19522;DHT22;9905;52.126;5.596;2022-12-18T10:05:36;-1.70;99.90
19522;DHT22;9905;52.126;5.596;2022-12-18T10:08:09;-1.60;99.90
19522;DHT22;9905;52.126;5.596;2022-12-18T10:10:43;-1.60;99.90
19522;DHT22;9905;52.126;5.596;2022-12-18T10:13:21;-1.50;99.90
19522;DHT22;9905;52.126;5.596;2022-12-18T10:16:00;-1.50;99.90
19522;DHT22;9905;52.126;5.596;2022-12-18T10:18:47;-1.40;99.90
19522;DHT22;9905;52.126;5.596;2022-12-18T10:21:18;-1.40;99.90
19522;DHT22;9905;52.126;5.596;2022-12-18T10:23:51;-1.30;99.90
19522;DHT22;9905;52.126;5.596;2022-12-18T10:26:24;-1.30;99.90
19522;DHT22;9905;52.126;5.596;2022-12-18T10:28:51;-1.20;99.90
19522;DHT22;9905;52.126;5.596;2022-12-18T10:31:21;-1.20;99.90
19522;DHT22;9905;52.126;5.596;2022-12-18T10:33:49;-1.10;99.90
19522;DHT22;9905;52.126;5.596;2022-12-18T10:36:15;-1.10;99.90
19522;DHT22;9905;52.126;5.596;2022-12-18T10:38:42;-1.00;99.90
19522;DHT22;9905;52.126;5.596;2022-12-18T10:41:25;-1.00;99.90
19522;DHT22;9905;52.126;5.596;2022-12-18T10:44:12;-0.90;99.90
19522;DHT22;9905;52.126;5.596;2022-12-18T10:46:39;-0.90;99.90
19522;DHT22;9905;52.126;5.596;2022-12-18T10:49:18;-0.90;99.90
19522;DHT22;9905;52.126;5.596;2022-12-18T10:51:46;-0.90;99.90
19522;DHT22;9905;52.126;5.596;2022-12-18T10:54:14;-0.90;99.90
19522;DHT22;9905;52.126;5.596;2022-12-18T10:56:43;-0.80;99.90
19522;DHT22;9905;52.126;5.596;2022-12-18T10:59:12;-0.70;99.90
19522;DHT22;9905;52.126;5.596;2022-12-18T11:01:48;-0.70;99.90
19522;DHT22;9905;52.126;5.596;2022-12-18T11:04:18;-0.70;99.90
19522;DHT22;9905;52.126;5.596;2022-12-18T11:06:54;-0.70;99.90
19522;DHT22;9905;52.126;5.596;2022-12-18T11:09:22;-0.60;99.90
19522;DHT22;9905;52.126;5.596;2022-12-18T11:11:51;-0.60;99.90
19522;DHT22;9905;52.126;5.596;2022-12-18T11:14:22;-0.60;99.90
19522;DHT22;9905;52.126;5.596;2022-12-18T11:16:51;-0.50;99.90
19522;DHT22;9905;52.126;5.596;2022-12-18T11:19:28;-0.50;99.90
19522;DHT22;9905;52.126;5.596;2022-12-18T11:21:55;-0.50;99.90
19522;DHT22;9905;52.126;5.596;2022-12-18T11:24:27;-0.40;99.90
19522;DHT22;9905;52.126;5.596;2022-12-18T11:26:58;-0.40;99.90
19522;DHT22;9905;52.126;5.596;2022-12-18T11:29:35;-0.40;99.90
19522;DHT22;9905;52.126;5.596;2022-12-18T11:32:33;-0.40;99.90
19522;DHT22;9905;52.126;5.596;2022-12-18T11:35:13;-0.40;99.90
19522;DHT22;9905;52.126;5.596;2022-12-18T11:37:46;-0.30;99.90
19522;DHT22;9905;52.126;5.596;2022-12-18T11:40:17;-0.30;99.90
19522;DHT22;9905;52.126;5.596;2022-12-18T11:42:50;-0.20;99.90
19522;DHT22;9905;52.126;5.596;2022-12-18T11:45:25;-0.20;99.90
19522;DHT22;9905;52.126;5.596;2022-12-18T11:47:57;-0.20;99.90
19522;DHT22;9905;52.126;5.596;2022-12-18T11:50:26;-0.10;99.90
19522;DHT22;9905;52.126;5.596;2022-12-18T11:52:54;-0.10;99.90
19522;DHT22;9905;52.126;5.596;2022-12-18T11:55:28;-0.10;99.90
19522;DHT22;9905;52.126;5.596;2022-12-18T11:58:03;0.00;99.90
19522;DHT22;9905;52.126;5.596;2022-12-18T12:00:36;0.00;99.90
19522;DHT22;9905;52.126;5.596;2022-12-18T12:03:39;0.00;99.90
19522;DHT22;9905;52.126;5.596;2022-12-18T12:06:12;0.10;99.90
19522;DHT22;9905;52.126;5.596;2022-12-18T12:08:54;0.10;99.90
19522;DHT22;9905;52.126;5.596;2022-12-18T12:11:28;0.10;99.90
19522;DHT22;9905;52.126;5.596;2022-12-18T12:14:13;0.10;99.90
19522;DHT22;9905;52.126;5.596;2022-12-18T12:16:47;0.20;99.90
19522;DHT22;9905;52.126;5.596;2022-12-18T12:19:29;0.20;99.90
19522;DHT22;9905;52.126;5.596;2022-12-18T12:22:05;0.20;99.90
19522;DHT22;9905;52.126;5.596;2022-12-18T12:24:44;0.20;99.90
19522;DHT22;9905;52.126;5.596;2022-12-18T12:27:19;0.20;99.90
19522;DHT22;9905;52.126;5.596;2022-12-18T12:29:58;0.20;99.90
19522;DHT22;9905;52.126;5.596;2022-12-18T12:32:45;0.30;99.90
19522;DHT22;9905;52.126;5.596;2022-12-18T12:35:25;0.30;99.90
19522;DHT22;9905;52.126;5.596;2022-12-18T12:38:00;0.30;99.90
19522;DHT22;9905;52.126;5.596;2022-12-18T12:40:33;0.30;99.90
19522;DHT22;9905;52.126;5.596;2022-12-18T12:43:05;0.40;99.90
19522;DHT22;9905;52.126;5.596;2022-12-18T12:45:44;0.40;99.90
19522;DHT22;9905;52.126;5.596;2022-12-18T12:48:18;0.40;99.90
19522;DHT22;9905;52.126;5.596;2022-12-18T12:50:45;0.40;99.90
19522;DHT22;9905;52.126;5.596;2022-12-18T12:53:21;0.40;99.90
19522;DHT22;9905;52.126;5.596;2022-12-18T12:55:50;0.40;99.90
19522;DHT22;9905;52.126;5.596;2022-12-18T12:58:24;0.50;99.90
19522;DHT22;9905;52.126;5.596;2022-12-18T13:01:01;0.50;99.90
19522;DHT22;9905;52.126;5.596;2022-12-18T13:03:41;0.50;99.90
19522;DHT22;9905;52.126;5.596;2022-12-18T13:06:12;0.50;99.90
19522;DHT22;9905;52.126;5.596;2022-12-18T13:08:54;0.50;99.90
19522;DHT22;9905;52.126;5.596;2022-12-18T13:11:35;0.50;99.90
19522;DHT22;9905;52.126;5.596;2022-12-18T13:14:27;0.50;99.90
19522;DHT22;9905;52.126;5.596;2022-12-18T13:17:15;0.60;99.90
19522;DHT22;9905;52.126;5.596;2022-12-18T13:19:42;0.60;99.90
19522;DHT22;9905;52.126;5.596;2022-12-18T13:22:21;0.60;99.90
19522;DHT22;9905;52.126;5.596;2022-12-18T13:24:49;0.60;99.90
19522;DHT22;9905;52.126;5.596;2022-12-18T13:27:46;0.60;99.90
19522;DHT22;9905;52.126;5.596;2022-12-18T13:30:43;0.60;99.90
19522;DHT22;9905;52.126;5.596;2022-12-18T13:36:31;0.60;99.90
19522;DHT22;9905;52.126;5.596;2022-12-18T13:42:37;0.60;99.90
19522;DHT22;9905;52.126;5.596;2022-12-18T13:45:41;0.60;99.90
19522;DHT22;9905;52.126;5.596;2022-12-18T13:48:21;0.70;99.90
19522;DHT22;9905;52.126;5.596;2022-12-18T13:50:53;0.60;99.90
19522;DHT22;9905;52.126;5.596;2022-12-18T13:53:24;0.60;99.90
19522;DHT22;9905;52.126;5.596;2022-12-18T13:55:53;0.60;99.90
19522;DHT22;9905;52.126;5.596;2022-12-18T13:58:19;0.60;99.90
19522;DHT22;9905;52.126;5.596;2022-12-18T14:00:46;0.60;99.90
19522;DHT22;9905;52.126;5.596;2022-12-18T14:03:21;0.60;99.90
19522;DHT22;9905;52.126;5.596;2022-12-18T14:05:53;0.70;99.90
19522;DHT22;9905;52.126;5.596;2022-12-18T14:08:24;0.70;99.90
19522;DHT22;9905;52.126;5.596;2022-12-18T14:10:53;0.70;99.90
19522;DHT22;9905;52.126;5.596;2022-12-18T14:13:24;0.60;99.90
19522;DHT22;9905;52.126;5.596;2022-12-18T14:15:53;0.60;99.90
19522;DHT22;9905;52.126;5.596;2022-12-18T14:18:22;0.70;99.90
19522;DHT22;9905;52.126;5.596;2022-12-18T14:20:51;0.60;99.90
19522;DHT22;9905;52.126;5.596;2022-12-18T14:23:32;0.60;99.90
19522;DHT22;9905;52.126;5.596;2022-12-18T14:26:00;0.60;99.90
19522;DHT22;9905;52.126;5.596;2022-12-18T14:28:27;0.60;99.90
19522;DHT22;9905;52.126;5.596;2022-12-18T14:30:54;0.60;99.90
19522;DHT22;9905;52.126;5.596;2022-12-18T14:33:24;0.60;99.90
19522;DHT22;9905;52.126;5.596;2022-12-18T14:35:57;0.60;99.90
19522;DHT22;9905;52.126;5.596;2022-12-18T14:38:28;0.70;99.90
19522;DHT22;9905;52.126;5.596;2022-12-18T14:40:57;0.60;99.90
19522;DHT22;9905;52.126;5.596;2022-12-18T14:43:26;0.60;99.90
19522;DHT22;9905;52.126;5.596;2022-12-18T14:45:54;0.60;99.90
19522;DHT22;9905;52.126;5.596;2022-12-18T14:48:24;0.70;99.90
19522;DHT22;9905;52.126;5.596;2022-12-18T14:51:00;0.60;99.90
19522;DHT22;9905;52.126;5.596;2022-12-18T14:53:37;0.70;99.90
19522;DHT22;9905;52.126;5.596;2022-12-18T14:56:14;0.70;99.90
19522;DHT22;9905;52.126;5.596;2022-12-18T14:58:48;0.70;99.90
19522;DHT22;9905;52.126;5.596;2022-12-18T15:01:22;0.70;99.90
19522;DHT22;9905;52.126;5.596;2022-12-18T15:03:51;0.70;99.90
19522;DHT22;9905;52.126;5.596;2022-12-18T15:06:25;0.60;99.90
19522;DHT22;9905;52.126;5.596;2022-12-18T15:08:54;0.70;99.90
19522;DHT22;9905;52.126;5.596;2022-12-18T15:11:42;0.60;99.90
19522;DHT22;9905;52.126;5.596;2022-12-18T15:14:31;0.60;99.90
19522;DHT22;9905;52.126;5.596;2022-12-18T15:16:58;0.60;99.90
19522;DHT22;9905;52.126;5.596;2022-12-18T15:19:34;0.60;99.90
19522;DHT22;9905;52.126;5.596;2022-12-18T15:22:02;0.70;99.90
19522;DHT22;9905;52.126;5.596;2022-12-18T15:24:32;0.70;99.90
19522;DHT22;9905;52.126;5.596;2022-12-18T15:26:59;0.70;99.90
19522;DHT22;9905;52.126;5.596;2022-12-18T15:29:26;0.70;99.90
19522;DHT22;9905;52.126;5.596;2022-12-18T15:32:01;0.60;99.90
19522;DHT22;9905;52.126;5.596;2022-12-18T15:34:29;0.70;99.90
19522;DHT22;9905;52.126;5.596;2022-12-18T15:36:56;0.60;99.90
19522;DHT22;9905;52.126;5.596;2022-12-18T15:39:23;0.60;99.90
19522;DHT22;9905;52.126;5.596;2022-12-18T15:41:51;0.60;99.90
19522;DHT22;9905;52.126;5.596;2022-12-18T15:44:36;0.60;99.90
19522;DHT22;9905;52.126;5.596;2022-12-18T15:47:04;0.60;99.90
19522;DHT22;9905;52.126;5.596;2022-12-18T15:49:31;0.70;99.90
19522;DHT22;9905;52.126;5.596;2022-12-18T15:51:59;0.60;99.90
19522;DHT22;9905;52.126;5.596;2022-12-18T15:54:26;0.60;99.90
19522;DHT22;9905;52.126;5.596;2022-12-18T15:57:12;0.70;99.90
19522;DHT22;9905;52.126;5.596;2022-12-18T15:59:53;0.70;99.90
19522;DHT22;9905;52.126;5.596;2022-12-18T16:02:22;0.70;99.90
19522;DHT22;9905;52.126;5.596;2022-12-18T16:04:49;0.70;99.90
19522;DHT22;9905;52.126;5.596;2022-12-18T16:07:16;0.70;99.90
19522;DHT22;9905;52.126;5.596;2022-12-18T16:09:43;0.70;99.90
19522;DHT22;9905;52.126;5.596;2022-12-18T16:12:16;0.60;99.90
19522;DHT22;9905;52.126;5.596;2022-12-18T16:14:43;0.60;99.90
19522;DHT22;9905;52.126;5.596;2022-12-18T16:17:12;0.60;99.90
19522;DHT22;9905;52.126;5.596;2022-12-18T16:19:42;0.60;99.90